﻿<?xml version="1.0" encoding="utf-8"?><gpx creator="Garmin Desktop App" version="1.1" xsi:schemaLocation="http://www.topografix.com/GPX/1/1 http://www.topografix.com/GPX/1/1/gpx.xsd http://www.garmin.com/xmlschemas/WaypointExtension/v1 http://www8.garmin.com/xmlschemas/WaypointExtensionv1.xsd http://www.garmin.com/xmlschemas/TrackPointExtension/v1 http://www.garmin.com/xmlschemas/TrackPointExtensionv1.xsd http://www.garmin.com/xmlschemas/GpxExtensions/v3 http://www8.garmin.com/xmlschemas/GpxExtensionsv3.xsd http://www.garmin.com/xmlschemas/ActivityExtension/v1 http://www8.garmin.com/xmlschemas/ActivityExtensionv1.xsd http://www.garmin.com/xmlschemas/AdventuresExtensions/v1 http://www8.garmin.com/xmlschemas/AdventuresExtensionv1.xsd http://www.garmin.com/xmlschemas/PressureExtension/v1 http://www.garmin.com/xmlschemas/PressureExtensionv1.xsd http://www.garmin.com/xmlschemas/TripExtensions/v1 http://www.garmin.com/xmlschemas/TripExtensionsv1.xsd http://www.garmin.com/xmlschemas/TripMetaDataExtensions/v1 http://www.garmin.com/xmlschemas/TripMetaDataExtensionsv1.xsd http://www.garmin.com/xmlschemas/ViaPointTransportationModeExtensions/v1 http://www.garmin.com/xmlschemas/ViaPointTransportationModeExtensionsv1.xsd http://www.garmin.com/xmlschemas/CreationTimeExtension/v1 http://www.garmin.com/xmlschemas/CreationTimeExtensionsv1.xsd http://www.garmin.com/xmlschemas/AccelerationExtension/v1 http://www.garmin.com/xmlschemas/AccelerationExtensionv1.xsd http://www.garmin.com/xmlschemas/PowerExtension/v1 http://www.garmin.com/xmlschemas/PowerExtensionv1.xsd http://www.garmin.com/xmlschemas/VideoExtension/v1 http://www.garmin.com/xmlschemas/VideoExtensionv1.xsd" xmlns="http://www.topografix.com/GPX/1/1" xmlns:xsi="http://www.w3.org/2001/XMLSchema-instance" xmlns:wptx1="http://www.garmin.com/xmlschemas/WaypointExtension/v1" xmlns:gpxtrx="http://www.garmin.com/xmlschemas/GpxExtensions/v3" xmlns:gpxtpx="http://www.garmin.com/xmlschemas/TrackPointExtension/v1" xmlns:gpxx="http://www.garmin.com/xmlschemas/GpxExtensions/v3" xmlns:trp="http://www.garmin.com/xmlschemas/TripExtensions/v1" xmlns:adv="http://www.garmin.com/xmlschemas/AdventuresExtensions/v1" xmlns:prs="http://www.garmin.com/xmlschemas/PressureExtension/v1" xmlns:tmd="http://www.garmin.com/xmlschemas/TripMetaDataExtensions/v1" xmlns:vptm="http://www.garmin.com/xmlschemas/ViaPointTransportationModeExtensions/v1" xmlns:ctx="http://www.garmin.com/xmlschemas/CreationTimeExtension/v1" xmlns:gpxacc="http://www.garmin.com/xmlschemas/AccelerationExtension/v1" xmlns:gpxpx="http://www.garmin.com/xmlschemas/PowerExtension/v1" xmlns:vidx1="http://www.garmin.com/xmlschemas/VideoExtension/v1">

  <metadata>
    <link href="http://www.garmin.com">
      <text>Garmin International</text>
    </link>
    <time>2024-03-13T12:53:18Z</time>
    <bounds maxlat="49.997359653934836" maxlon="5.052296323701739" minlat="49.972423743456602" minlon="4.991763224825263" />
  </metadata>

  <trk>
    <name>graide 14 km NW</name>
    <extensions>
      <gpxx:TrackExtension>
        <gpxx:DisplayColor>Red</gpxx:DisplayColor>
      </gpxx:TrackExtension>
    </extensions>
    <trkseg>
      <trkpt lat="49.974204478785396" lon="5.049857357516885">
        <ele>370.01953125</ele>
        <time>2015-05-03T08:17:37Z</time>
      </trkpt>
      <trkpt lat="49.974754080176353" lon="5.049186972901225">
        <ele>370.01953125</ele>
        <time>2015-05-03T08:17:59Z</time>
      </trkpt>
      <trkpt lat="49.974891375750303" lon="5.049499534070492">
        <ele>369.76953125</ele>
        <time>2015-05-03T08:18:29Z</time>
      </trkpt>
      <trkpt lat="49.975051302462816" lon="5.049970177933574">
        <ele>369.10546875</ele>
        <time>2015-05-03T08:18:54Z</time>
      </trkpt>
      <trkpt lat="49.975202847272158" lon="5.050434451550245">
        <ele>368.9765625</ele>
        <time>2015-05-03T08:19:19Z</time>
      </trkpt>
      <trkpt lat="49.975364282727242" lon="5.050934012979269">
        <ele>367.8671875</ele>
        <time>2015-05-03T08:19:46Z</time>
      </trkpt>
      <trkpt lat="49.975530579686165" lon="5.051418822258711">
        <ele>367.05078125</ele>
        <time>2015-05-03T08:20:13Z</time>
      </trkpt>
      <trkpt lat="49.975701570510864" lon="5.051937242969871">
        <ele>366.0078125</ele>
        <time>2015-05-03T08:20:40Z</time>
      </trkpt>
      <trkpt lat="49.975856468081474" lon="5.052296323701739">
        <ele>364.71875</ele>
        <time>2015-05-03T08:21:04Z</time>
      </trkpt>
      <trkpt lat="49.975879518315196" lon="5.052280984818935">
        <ele>364.78515625</ele>
        <time>2015-05-03T08:21:06Z</time>
      </trkpt>
      <trkpt lat="49.976119240745902" lon="5.052178809419274">
        <ele>365.2109375</ele>
        <time>2015-05-03T08:21:26Z</time>
      </trkpt>
      <trkpt lat="49.976243963465095" lon="5.051840767264366">
        <ele>366.32421875</ele>
        <time>2015-05-03T08:21:52Z</time>
      </trkpt>
      <trkpt lat="49.976318730041385" lon="5.051771700382233">
        <ele>366.5546875</ele>
        <time>2015-05-03T08:22:21Z</time>
      </trkpt>
      <trkpt lat="49.976387126371264" lon="5.051676565781236">
        <ele>366.8671875</ele>
        <time>2015-05-03T08:22:34Z</time>
      </trkpt>
      <trkpt lat="49.976571444422007" lon="5.051311533898115">
        <ele>367.88671875</ele>
        <time>2015-05-03T08:23:01Z</time>
      </trkpt>
      <trkpt lat="49.976773783564568" lon="5.050944741815329">
        <ele>367.88671875</ele>
        <time>2015-05-03T08:23:24Z</time>
      </trkpt>
      <trkpt lat="49.976888364180923" lon="5.050720861181617">
        <ele>368.19921875</ele>
        <time>2015-05-03T08:23:36Z</time>
      </trkpt>
      <trkpt lat="49.977133199572563" lon="5.050316099077463">
        <ele>367.9765625</ele>
        <time>2015-05-03T08:24:02Z</time>
      </trkpt>
      <trkpt lat="49.977360516786575" lon="5.050041591748595">
        <ele>367.34375</ele>
        <time>2015-05-03T08:24:25Z</time>
      </trkpt>
      <trkpt lat="49.977369988337159" lon="5.050026420503855">
        <ele>367.2890625</ele>
        <time>2015-05-03T08:24:26Z</time>
      </trkpt>
      <trkpt lat="49.977625887840986" lon="5.049698688089848">
        <ele>366.046875</ele>
        <time>2015-05-03T08:24:50Z</time>
      </trkpt>
      <trkpt lat="49.977880530059338" lon="5.04943298175931">
        <ele>364.5859375</ele>
        <time>2015-05-03T08:25:14Z</time>
      </trkpt>
      <trkpt lat="49.977929396554828" lon="5.049301218241453">
        <ele>364.265625</ele>
        <time>2015-05-03T08:25:22Z</time>
      </trkpt>
      <trkpt lat="49.977978011593223" lon="5.048834681510925">
        <ele>362.5234375</ele>
        <time>2015-05-03T08:25:48Z</time>
      </trkpt>
      <trkpt lat="49.978068619966507" lon="5.048576937988401">
        <ele>361.11328125</ele>
        <time>2015-05-03T08:25:59Z</time>
      </trkpt>
      <trkpt lat="49.97810197994113" lon="5.048516504466534">
        <ele>360.80859375</ele>
        <time>2015-05-03T08:26:02Z</time>
      </trkpt>
      <trkpt lat="49.978300798684359" lon="5.04810243844986">
        <ele>358.57421875</ele>
        <time>2015-05-03T08:26:25Z</time>
      </trkpt>
      <trkpt lat="49.978398699313402" lon="5.047636572271586">
        <ele>356.421875</ele>
        <time>2015-05-03T08:26:53Z</time>
      </trkpt>
      <trkpt lat="49.978388305753469" lon="5.047334237024188">
        <ele>355.5859375</ele>
        <time>2015-05-03T08:27:08Z</time>
      </trkpt>
      <trkpt lat="49.978313790634274" lon="5.046751610934734">
        <ele>353.51171875</ele>
        <time>2015-05-03T08:27:32Z</time>
      </trkpt>
      <trkpt lat="49.978289231657982" lon="5.046232184395194">
        <ele>351.87109375</ele>
        <time>2015-05-03T08:27:57Z</time>
      </trkpt>
      <trkpt lat="49.978260230273008" lon="5.04583228379488">
        <ele>350.91796875</ele>
        <time>2015-05-03T08:28:15Z</time>
      </trkpt>
      <trkpt lat="49.978215387091041" lon="5.045250663533807">
        <ele>349.5703125</ele>
        <time>2015-05-03T08:28:41Z</time>
      </trkpt>
      <trkpt lat="49.978141039609909" lon="5.044606178998947">
        <ele>348.296875</ele>
        <time>2015-05-03T08:29:08Z</time>
      </trkpt>
      <trkpt lat="49.978139949962497" lon="5.04453937523067">
        <ele>348.21484375</ele>
        <time>2015-05-03T08:29:11Z</time>
      </trkpt>
      <trkpt lat="49.978238772600889" lon="5.044406689703465">
        <ele>347.49609375</ele>
        <time>2015-05-03T08:29:26Z</time>
      </trkpt>
      <trkpt lat="49.978278838098049" lon="5.04441674798727">
        <ele>347.26171875</ele>
        <time>2015-05-03T08:29:32Z</time>
      </trkpt>
      <trkpt lat="49.978508753702044" lon="5.044417083263397">
        <ele>345.68359375</ele>
        <time>2015-05-03T08:29:49Z</time>
      </trkpt>
      <trkpt lat="49.978885352611542" lon="5.044361427426338">
        <ele>343.10546875</ele>
        <time>2015-05-03T08:30:12Z</time>
      </trkpt>
      <trkpt lat="49.97890773229301" lon="5.044346088543534">
        <ele>342.9921875</ele>
        <time>2015-05-03T08:30:14Z</time>
      </trkpt>
      <trkpt lat="49.979164972901344" lon="5.044330162927508">
        <ele>340.6015625</ele>
        <time>2015-05-03T08:30:30Z</time>
      </trkpt>
      <trkpt lat="49.979326408356428" lon="5.044428901746869">
        <ele>338.42578125</ele>
        <time>2015-05-03T08:30:51Z</time>
      </trkpt>
      <trkpt lat="49.979362953454256" lon="5.044426470994949">
        <ele>337.91015625</ele>
        <time>2015-05-03T08:30:59Z</time>
      </trkpt>
      <trkpt lat="49.97952246107161" lon="5.044552953913808">
        <ele>335.47265625</ele>
        <time>2015-05-03T08:31:17Z</time>
      </trkpt>
      <trkpt lat="49.979755561798811" lon="5.044635431841016">
        <ele>332.25</ele>
        <time>2015-05-03T08:31:38Z</time>
      </trkpt>
      <trkpt lat="49.979982459917665" lon="5.044698547571898">
        <ele>328.95703125</ele>
        <time>2015-05-03T08:32:00Z</time>
      </trkpt>
      <trkpt lat="49.980223439633846" lon="5.044845314696431">
        <ele>325.60546875</ele>
        <time>2015-05-03T08:32:26Z</time>
      </trkpt>
      <trkpt lat="49.980369368568063" lon="5.04509056918323">
        <ele>323.3046875</ele>
        <time>2015-05-03T08:41:35Z</time>
      </trkpt>
      <trkpt lat="49.980441620573401" lon="5.045139603316784">
        <ele>323.28125</ele>
        <time>2015-05-03T08:41:36Z</time>
      </trkpt>
      <trkpt lat="49.98054563999176" lon="5.045224009081721">
        <ele>320.35546875</ele>
        <time>2015-05-03T08:41:57Z</time>
      </trkpt>
      <trkpt lat="49.980922574177384" lon="5.044848751276732">
        <ele>317.43359375</ele>
        <time>2015-05-03T08:42:17Z</time>
      </trkpt>
      <trkpt lat="49.981264639645815" lon="5.044540967792273">
        <ele>314.671875</ele>
        <time>2015-05-03T08:42:42Z</time>
      </trkpt>
      <trkpt lat="49.981326917186379" lon="5.044479947537184">
        <ele>314.265625</ele>
        <time>2015-05-03T08:42:47Z</time>
      </trkpt>
      <trkpt lat="49.98158348724246" lon="5.044246846809983">
        <ele>312.69140625</ele>
        <time>2015-05-03T08:43:09Z</time>
      </trkpt>
      <trkpt lat="49.981839470565319" lon="5.043938141316176">
        <ele>311.8046875</ele>
        <time>2015-05-03T08:43:31Z</time>
      </trkpt>
      <trkpt lat="49.982035355642438" lon="5.043690288439393">
        <ele>311.8046875</ele>
        <time>2015-05-03T08:43:50Z</time>
      </trkpt>
      <trkpt lat="49.982322352007031" lon="5.043302206322551">
        <ele>313.0703125</ele>
        <time>2015-05-03T08:44:17Z</time>
      </trkpt>
      <trkpt lat="49.982541706413031" lon="5.043072123080492">
        <ele>313.40625</ele>
        <time>2015-05-03T08:44:36Z</time>
      </trkpt>
      <trkpt lat="49.982786206528544" lon="5.042754197493196">
        <ele>314.85546875</ele>
        <time>2015-05-03T08:44:57Z</time>
      </trkpt>
      <trkpt lat="49.982990138232708" lon="5.042441301047802">
        <ele>315.30078125</ele>
        <time>2015-05-03T08:45:17Z</time>
      </trkpt>
      <trkpt lat="49.983003465458751" lon="5.042327139526606">
        <ele>315.5859375</ele>
        <time>2015-05-03T08:45:23Z</time>
      </trkpt>
      <trkpt lat="49.982823170721531" lon="5.041915336623788">
        <ele>316.07421875</ele>
        <time>2015-05-03T08:45:46Z</time>
      </trkpt>
      <trkpt lat="49.982556207105517" lon="5.041469000279903">
        <ele>317.140625</ele>
        <time>2015-05-03T08:46:10Z</time>
      </trkpt>
      <trkpt lat="49.982433076947927" lon="5.04123330116272">
        <ele>318.33984375</ele>
        <time>2015-05-03T08:46:25Z</time>
      </trkpt>
      <trkpt lat="49.982287399470806" lon="5.040771039202809">
        <ele>320.51953125</ele>
        <time>2015-05-03T08:46:46Z</time>
      </trkpt>
      <trkpt lat="49.982179859653115" lon="5.040269047021866">
        <ele>322.48828125</ele>
        <time>2015-05-03T08:47:09Z</time>
      </trkpt>
      <trkpt lat="49.982091682031751" lon="5.039811143651605">
        <ele>323.04296875</ele>
        <time>2015-05-03T08:47:31Z</time>
      </trkpt>
      <trkpt lat="49.982015322893858" lon="5.039348294958472">
        <ele>323.99609375</ele>
        <time>2015-05-03T08:47:52Z</time>
      </trkpt>
      <trkpt lat="49.981927899643779" lon="5.038798106834292">
        <ele>324.7265625</ele>
        <time>2015-05-03T08:48:15Z</time>
      </trkpt>
      <trkpt lat="49.981850618496537" lon="5.038261748850346">
        <ele>325.74609375</ele>
        <time>2015-05-03T08:48:37Z</time>
      </trkpt>
      <trkpt lat="49.981787335127592" lon="5.037747183814645">
        <ele>327.0234375</ele>
        <time>2015-05-03T08:49:00Z</time>
      </trkpt>
      <trkpt lat="49.981732349842787" lon="5.037224320694804">
        <ele>327.54296875</ele>
        <time>2015-05-03T08:49:23Z</time>
      </trkpt>
      <trkpt lat="49.981705443933606" lon="5.037148967385292">
        <ele>327.5625</ele>
        <time>2015-05-03T08:49:27Z</time>
      </trkpt>
      <trkpt lat="49.981681052595377" lon="5.036974372342229">
        <ele>327.43359375</ele>
        <time>2015-05-03T09:02:23Z</time>
      </trkpt>
      <trkpt lat="49.981626989319921" lon="5.036419406533241">
        <ele>327.87109375</ele>
        <time>2015-05-03T09:02:46Z</time>
      </trkpt>
      <trkpt lat="49.981694715097547" lon="5.036019086837769">
        <ele>328.46875</ele>
        <time>2015-05-03T09:03:08Z</time>
      </trkpt>
      <trkpt lat="49.981707707047462" lon="5.035470155999064">
        <ele>329.52734375</ele>
        <time>2015-05-03T09:03:33Z</time>
      </trkpt>
      <trkpt lat="49.981727069243789" lon="5.034906305372715">
        <ele>330.36328125</ele>
        <time>2015-05-03T09:03:58Z</time>
      </trkpt>
      <trkpt lat="49.981713406741619" lon="5.034362487494946">
        <ele>331.46484375</ele>
        <time>2015-05-03T09:04:23Z</time>
      </trkpt>
      <trkpt lat="49.981673257425427" lon="5.03387164324522">
        <ele>333.45703125</ele>
        <time>2015-05-03T09:04:46Z</time>
      </trkpt>
      <trkpt lat="49.981631683185697" lon="5.033306870609522">
        <ele>335.01953125</ele>
        <time>2015-05-03T09:05:05Z</time>
      </trkpt>
      <trkpt lat="49.981596563011408" lon="5.032760621979833">
        <ele>336.328125</ele>
        <time>2015-05-03T09:05:25Z</time>
      </trkpt>
      <trkpt lat="49.98162548057735" lon="5.032323254272342">
        <ele>338.125</ele>
        <time>2015-05-03T09:05:47Z</time>
      </trkpt>
      <trkpt lat="49.981655571609735" lon="5.032198028638959">
        <ele>338.71875</ele>
        <time>2015-05-03T09:05:53Z</time>
      </trkpt>
      <trkpt lat="49.981747101992369" lon="5.031907092779875">
        <ele>339.8359375</ele>
        <time>2015-05-03T09:06:01Z</time>
      </trkpt>
      <trkpt lat="49.981989087536931" lon="5.031246514990926">
        <ele>343.31640625</ele>
        <time>2015-05-03T09:06:16Z</time>
      </trkpt>
      <trkpt lat="49.982193689793348" lon="5.030903862789273">
        <ele>345.84375</ele>
        <time>2015-05-03T09:06:23Z</time>
      </trkpt>
      <trkpt lat="49.982439447194338" lon="5.030564311891794">
        <ele>348.66015625</ele>
        <time>2015-05-03T09:06:31Z</time>
      </trkpt>
      <trkpt lat="49.982662321999669" lon="5.030421568080783">
        <ele>350.17578125</ele>
        <time>2015-05-03T09:06:38Z</time>
      </trkpt>
      <trkpt lat="49.982918053865433" lon="5.030377563089132">
        <ele>351.296875</ele>
        <time>2015-05-03T09:06:48Z</time>
      </trkpt>
      <trkpt lat="49.983617188408971" lon="5.030056871473789">
        <ele>354.09765625</ele>
        <time>2015-05-03T09:07:10Z</time>
      </trkpt>
      <trkpt lat="49.984036786481738" lon="5.029778089374304">
        <ele>354.7109375</ele>
        <time>2015-05-03T09:07:32Z</time>
      </trkpt>
      <trkpt lat="49.984389413148165" lon="5.029394114390016">
        <ele>355.421875</ele>
        <time>2015-05-03T09:07:58Z</time>
      </trkpt>
      <trkpt lat="49.984678756445646" lon="5.028995973989368">
        <ele>355.7578125</ele>
        <time>2015-05-03T09:08:23Z</time>
      </trkpt>
      <trkpt lat="49.984926609322429" lon="5.028555002063513">
        <ele>356.44921875</ele>
        <time>2015-05-03T09:08:47Z</time>
      </trkpt>
      <trkpt lat="49.985170103609562" lon="5.028054602444172">
        <ele>356.94921875</ele>
        <time>2015-05-03T09:09:09Z</time>
      </trkpt>
      <trkpt lat="49.985478054732084" lon="5.02732252702117">
        <ele>357.9296875</ele>
        <time>2015-05-03T09:09:30Z</time>
      </trkpt>
      <trkpt lat="49.985701097175479" lon="5.026484169065952">
        <ele>360.1953125</ele>
        <time>2015-05-03T09:09:46Z</time>
      </trkpt>
      <trkpt lat="49.986029416322708" lon="5.025677578523755">
        <ele>362.2265625</ele>
        <time>2015-05-03T09:10:06Z</time>
      </trkpt>
      <trkpt lat="49.986624615266919" lon="5.025179274380207">
        <ele>362.7578125</ele>
        <time>2015-05-03T09:10:28Z</time>
      </trkpt>
      <trkpt lat="49.987156363204122" lon="5.024630511179566">
        <ele>364.328125</ele>
        <time>2015-05-03T09:10:48Z</time>
      </trkpt>
      <trkpt lat="49.987505385652184" lon="5.023963144049048">
        <ele>366.24609375</ele>
        <time>2015-05-03T09:11:04Z</time>
      </trkpt>
      <trkpt lat="49.987661959603429" lon="5.023478167131543">
        <ele>367.53515625</ele>
        <time>2015-05-03T09:11:14Z</time>
      </trkpt>
      <trkpt lat="49.988012742251158" lon="5.022498071193695">
        <ele>369.7265625</ele>
        <time>2015-05-03T09:11:34Z</time>
      </trkpt>
      <trkpt lat="49.988332930952311" lon="5.021506575867534">
        <ele>372.1484375</ele>
        <time>2015-05-03T09:11:53Z</time>
      </trkpt>
      <trkpt lat="49.988572988659143" lon="5.02095471136272">
        <ele>373.65625</ele>
        <time>2015-05-03T09:12:08Z</time>
      </trkpt>
      <trkpt lat="49.988785972818732" lon="5.02033906057477">
        <ele>376.13671875</ele>
        <time>2015-05-03T09:12:33Z</time>
      </trkpt>
      <trkpt lat="49.989114543423057" lon="5.019937315955758">
        <ele>379.28515625</ele>
        <time>2015-05-03T09:12:59Z</time>
      </trkpt>
      <trkpt lat="49.989364240318537" lon="5.01960514113307">
        <ele>382.47265625</ele>
        <time>2015-05-03T09:13:22Z</time>
      </trkpt>
      <trkpt lat="49.989435402676463" lon="5.019577480852604">
        <ele>383.2109375</ele>
        <time>2015-05-03T09:14:31Z</time>
      </trkpt>
      <trkpt lat="49.98963656835258" lon="5.01932468265295">
        <ele>386.01953125</ele>
        <time>2015-05-03T09:14:48Z</time>
      </trkpt>
      <trkpt lat="49.989697337150574" lon="5.019242288544774">
        <ele>386.96875</ele>
        <time>2015-05-03T09:14:54Z</time>
      </trkpt>
      <trkpt lat="49.98998592607677" lon="5.01885705627501">
        <ele>391.359375</ele>
        <time>2015-05-03T09:15:19Z</time>
      </trkpt>
      <trkpt lat="49.990214668214321" lon="5.018625129014254">
        <ele>393.48828125</ele>
        <time>2015-05-03T09:15:38Z</time>
      </trkpt>
      <trkpt lat="49.990394208580256" lon="5.018463945016265">
        <ele>395.03125</ele>
        <time>2015-05-03T09:15:52Z</time>
      </trkpt>
      <trkpt lat="49.990653293207288" lon="5.018138475716114">
        <ele>397.57421875</ele>
        <time>2015-05-03T09:16:17Z</time>
      </trkpt>
      <trkpt lat="49.990954119712114" lon="5.017697419971228">
        <ele>398.12109375</ele>
        <time>2015-05-03T09:16:43Z</time>
      </trkpt>
      <trkpt lat="49.990977086126804" lon="5.017668334767222">
        <ele>398.15625</ele>
        <time>2015-05-03T09:16:45Z</time>
      </trkpt>
      <trkpt lat="49.991313619539142" lon="5.017340518534184">
        <ele>397.71484375</ele>
        <time>2015-05-03T09:17:11Z</time>
      </trkpt>
      <trkpt lat="49.991700444370508" lon="5.01701295375824">
        <ele>396.99609375</ele>
        <time>2015-05-03T09:17:39Z</time>
      </trkpt>
      <trkpt lat="49.99170589260757" lon="5.016990071162581">
        <ele>396.9453125</ele>
        <time>2015-05-03T09:17:40Z</time>
      </trkpt>
      <trkpt lat="49.99163405969739" lon="5.01687909476459">
        <ele>396.59375</ele>
        <time>2015-05-03T09:17:47Z</time>
      </trkpt>
      <trkpt lat="49.991319067776203" lon="5.016678767278791">
        <ele>395.97265625</ele>
        <time>2015-05-03T09:18:10Z</time>
      </trkpt>
      <trkpt lat="49.990966357290745" lon="5.01644222997129">
        <ele>395.19140625</ele>
        <time>2015-05-03T09:18:35Z</time>
      </trkpt>
      <trkpt lat="49.990622280165553" lon="5.016206279397011">
        <ele>395.01171875</ele>
        <time>2015-05-03T09:18:59Z</time>
      </trkpt>
      <trkpt lat="49.990275017917156" lon="5.01598097383976">
        <ele>395.1796875</ele>
        <time>2015-05-03T09:19:24Z</time>
      </trkpt>
      <trkpt lat="49.989942843094468" lon="5.015761032700539">
        <ele>395.578125</ele>
        <time>2015-05-03T09:19:48Z</time>
      </trkpt>
      <trkpt lat="49.989647632464767" lon="5.015576463192701">
        <ele>396.75</ele>
        <time>2015-05-03T09:20:10Z</time>
      </trkpt>
      <trkpt lat="49.98951243236661" lon="5.015400107949972">
        <ele>397.96875</ele>
        <time>2015-05-03T09:20:29Z</time>
      </trkpt>
      <trkpt lat="49.989643357694149" lon="5.014838939532638">
        <ele>397.69921875</ele>
        <time>2015-05-03T09:20:58Z</time>
      </trkpt>
      <trkpt lat="49.989664563909173" lon="5.014797952026129">
        <ele>397.55859375</ele>
        <time>2015-05-03T09:21:02Z</time>
      </trkpt>
      <trkpt lat="49.989898670464754" lon="5.014452198520303">
        <ele>395.9296875</ele>
        <time>2015-05-03T09:21:24Z</time>
      </trkpt>
      <trkpt lat="49.990133196115494" lon="5.014105439186096">
        <ele>393.30859375</ele>
        <time>2015-05-03T09:21:46Z</time>
      </trkpt>
      <trkpt lat="49.990362860262394" lon="5.013814168050885">
        <ele>389.8984375</ele>
        <time>2015-05-03T09:22:10Z</time>
      </trkpt>
      <trkpt lat="49.990521697327495" lon="5.013680728152394">
        <ele>388.0703125</ele>
        <time>2015-05-03T09:22:22Z</time>
      </trkpt>
      <trkpt lat="49.990872479975224" lon="5.013372274115682">
        <ele>384.015625</ele>
        <time>2015-05-03T09:22:45Z</time>
      </trkpt>
      <trkpt lat="49.991033244878054" lon="5.013176891952753">
        <ele>382.2890625</ele>
        <time>2015-05-03T09:22:59Z</time>
      </trkpt>
      <trkpt lat="49.991355529054999" lon="5.012920992448926">
        <ele>379.578125</ele>
        <time>2015-05-03T09:23:22Z</time>
      </trkpt>
      <trkpt lat="49.991742772981524" lon="5.012624859809876">
        <ele>377.4921875</ele>
        <time>2015-05-03T09:23:48Z</time>
      </trkpt>
      <trkpt lat="49.99207335524261" lon="5.012553278356791">
        <ele>376.4140625</ele>
        <time>2015-05-03T09:24:12Z</time>
      </trkpt>
      <trkpt lat="49.992420617491007" lon="5.012428304180503">
        <ele>378.203125</ele>
        <time>2015-05-03T09:24:32Z</time>
      </trkpt>
      <trkpt lat="49.992712140083313" lon="5.012472225353122">
        <ele>379.8046875</ele>
        <time>2015-05-03T09:24:52Z</time>
      </trkpt>
      <trkpt lat="49.993182951584458" lon="5.012575909495354">
        <ele>382.37890625</ele>
        <time>2015-05-03T09:25:20Z</time>
      </trkpt>
      <trkpt lat="49.993519401177764" lon="5.012606335803866">
        <ele>384.81640625</ele>
        <time>2015-05-03T09:25:43Z</time>
      </trkpt>
      <trkpt lat="49.993878230452538" lon="5.012558056041598">
        <ele>387.83984375</ele>
        <time>2015-05-03T09:26:08Z</time>
      </trkpt>
      <trkpt lat="49.994076881557703" lon="5.012530395761132">
        <ele>389.61328125</ele>
        <time>2015-05-03T09:26:22Z</time>
      </trkpt>
      <trkpt lat="49.99443001113832" lon="5.012483960017562">
        <ele>392.23046875</ele>
        <time>2015-05-03T09:26:47Z</time>
      </trkpt>
      <trkpt lat="49.994724970310926" lon="5.012436350807548">
        <ele>394.59765625</ele>
        <time>2015-05-03T09:27:11Z</time>
      </trkpt>
      <trkpt lat="49.994736956432462" lon="5.01243744045496">
        <ele>394.68359375</ele>
        <time>2015-05-03T09:27:12Z</time>
      </trkpt>
      <trkpt lat="49.994806190952659" lon="5.012415396049619">
        <ele>395.3125</ele>
        <time>2015-05-03T09:27:18Z</time>
      </trkpt>
      <trkpt lat="49.995134426280856" lon="5.012296959757805">
        <ele>398.921875</ele>
        <time>2015-05-03T09:27:43Z</time>
      </trkpt>
      <trkpt lat="49.995359731838107" lon="5.012283381074667">
        <ele>400.87890625</ele>
        <time>2015-05-03T09:28:01Z</time>
      </trkpt>
      <trkpt lat="49.995473306626081" lon="5.012266449630261">
        <ele>402.01953125</ele>
        <time>2015-05-03T09:28:08Z</time>
      </trkpt>
      <trkpt lat="49.995832806453109" lon="5.012269634753466">
        <ele>404.5078125</ele>
        <time>2015-05-03T09:28:26Z</time>
      </trkpt>
      <trkpt lat="49.99567061662674" lon="5.012076096609235">
        <ele>404.875</ele>
        <time>2015-05-03T09:28:43Z</time>
      </trkpt>
      <trkpt lat="49.995344979688525" lon="5.011834446340799">
        <ele>402.6796875</ele>
        <time>2015-05-03T09:29:05Z</time>
      </trkpt>
      <trkpt lat="49.995132414624095" lon="5.011535296216607">
        <ele>402.0546875</ele>
        <time>2015-05-03T09:29:30Z</time>
      </trkpt>
      <trkpt lat="49.994848603382707" lon="5.011082421988249">
        <ele>401.1953125</ele>
        <time>2015-05-03T09:29:58Z</time>
      </trkpt>
      <trkpt lat="49.994475105777383" lon="5.010571796447039">
        <ele>399.125</ele>
        <time>2015-05-03T09:30:26Z</time>
      </trkpt>
      <trkpt lat="49.994207639247179" lon="5.010207686573267">
        <ele>397.3515625</ele>
        <time>2015-05-03T09:30:54Z</time>
      </trkpt>
      <trkpt lat="49.994073864072561" lon="5.009735198691487">
        <ele>398.390625</ele>
        <time>2015-05-03T09:31:15Z</time>
      </trkpt>
      <trkpt lat="49.993930449709296" lon="5.009132036939263">
        <ele>399.390625</ele>
        <time>2015-05-03T09:31:30Z</time>
      </trkpt>
      <trkpt lat="49.993686117231846" lon="5.008086059242487">
        <ele>400.24609375</ele>
        <time>2015-05-03T09:31:51Z</time>
      </trkpt>
      <trkpt lat="49.993443125858903" lon="5.007383739575744">
        <ele>399.546875</ele>
        <time>2015-05-03T09:32:10Z</time>
      </trkpt>
      <trkpt lat="49.993150597438216" lon="5.006848555058241">
        <ele>397.1484375</ele>
        <time>2015-05-03T09:32:27Z</time>
      </trkpt>
      <trkpt lat="49.992820266634226" lon="5.006404481828213">
        <ele>393.51953125</ele>
        <time>2015-05-03T09:32:44Z</time>
      </trkpt>
      <trkpt lat="49.992736112326384" lon="5.006312113255262">
        <ele>392.68359375</ele>
        <time>2015-05-03T09:32:48Z</time>
      </trkpt>
      <trkpt lat="49.992556907236576" lon="5.006000222638249">
        <ele>390.84765625</ele>
        <time>2015-05-03T09:32:57Z</time>
      </trkpt>
      <trkpt lat="49.992401003837585" lon="5.005376357585192">
        <ele>387.90234375</ele>
        <time>2015-05-03T09:33:14Z</time>
      </trkpt>
      <trkpt lat="49.992207381874323" lon="5.00453975982964">
        <ele>383.80859375</ele>
        <time>2015-05-03T09:33:35Z</time>
      </trkpt>
      <trkpt lat="49.992173267528415" lon="5.003793435171247">
        <ele>380.359375</ele>
        <time>2015-05-03T09:33:52Z</time>
      </trkpt>
      <trkpt lat="49.992126496508718" lon="5.00356050208211">
        <ele>379.57421875</ele>
        <time>2015-05-03T09:33:58Z</time>
      </trkpt>
      <trkpt lat="49.992231857031584" lon="5.002948371693492">
        <ele>377.5078125</ele>
        <time>2015-05-03T09:34:09Z</time>
      </trkpt>
      <trkpt lat="49.992320956662297" lon="5.002702362835407">
        <ele>377.78125</ele>
        <time>2015-05-03T09:34:16Z</time>
      </trkpt>
      <trkpt lat="49.992426484823227" lon="5.002131555229425">
        <ele>378.9609375</ele>
        <time>2015-05-03T09:35:32Z</time>
      </trkpt>
      <trkpt lat="49.992448445409536" lon="5.002096015959978">
        <ele>379.23828125</ele>
        <time>2015-05-03T09:39:28Z</time>
      </trkpt>
      <trkpt lat="49.992502592504025" lon="5.001922259107232">
        <ele>380.3203125</ele>
        <time>2015-05-03T09:40:01Z</time>
      </trkpt>
      <trkpt lat="49.99264164827764" lon="5.00168127939105">
        <ele>382.484375</ele>
        <time>2015-05-03T09:40:33Z</time>
      </trkpt>
      <trkpt lat="49.992831833660603" lon="5.001593353226781">
        <ele>383.9609375</ele>
        <time>2015-05-03T09:40:52Z</time>
      </trkpt>
      <trkpt lat="49.993122098967433" lon="5.001610955223441">
        <ele>385.55078125</ele>
        <time>2015-05-03T09:41:14Z</time>
      </trkpt>
      <trkpt lat="49.993218826130033" lon="5.001550521701574">
        <ele>386.0546875</ele>
        <time>2015-05-03T09:41:21Z</time>
      </trkpt>
      <trkpt lat="49.993248330429196" lon="5.001521604135633">
        <ele>386.234375</ele>
        <time>2015-05-03T09:41:23Z</time>
      </trkpt>
      <trkpt lat="49.993482856079936" lon="5.001316331326962">
        <ele>388.13671875</ele>
        <time>2015-05-03T09:41:42Z</time>
      </trkpt>
      <trkpt lat="49.993944698944688" lon="5.001408532261848">
        <ele>390.19140625</ele>
        <time>2015-05-03T09:42:16Z</time>
      </trkpt>
      <trkpt lat="49.994201771914959" lon="5.001364108175039">
        <ele>391.0703125</ele>
        <time>2015-05-03T09:42:44Z</time>
      </trkpt>
      <trkpt lat="49.99452187679708" lon="5.001501655206084">
        <ele>391.25390625</ele>
        <time>2015-05-03T09:43:13Z</time>
      </trkpt>
      <trkpt lat="49.994911132380366" lon="5.001861657947302">
        <ele>392.45703125</ele>
        <time>2015-05-03T09:43:40Z</time>
      </trkpt>
      <trkpt lat="49.995110956951976" lon="5.002043461427093">
        <ele>394.1015625</ele>
        <time>2015-05-03T09:44:12Z</time>
      </trkpt>
      <trkpt lat="49.995243223384023" lon="5.00213029794395">
        <ele>394.546875</ele>
        <time>2015-05-03T09:44:44Z</time>
      </trkpt>
      <trkpt lat="49.995408430695534" lon="5.002231551334262">
        <ele>395.2109375</ele>
        <time>2015-05-03T09:45:18Z</time>
      </trkpt>
      <trkpt lat="49.995814030990005" lon="5.002325680106878">
        <ele>397.56640625</ele>
        <time>2015-05-03T09:45:50Z</time>
      </trkpt>
      <trkpt lat="49.995822496712208" lon="5.002331547439098">
        <ele>397.61328125</ele>
        <time>2015-05-03T09:45:51Z</time>
      </trkpt>
      <trkpt lat="49.995828364044428" lon="5.002336576581001">
        <ele>397.64453125</ele>
        <time>2015-05-03T09:45:52Z</time>
      </trkpt>
      <trkpt lat="49.995837081223726" lon="5.002339091151953">
        <ele>397.7109375</ele>
        <time>2015-05-03T09:45:53Z</time>
      </trkpt>
      <trkpt lat="49.996036738157272" lon="5.002345377579331">
        <ele>399.24609375</ele>
        <time>2015-05-03T09:46:21Z</time>
      </trkpt>
      <trkpt lat="49.996279394254088" lon="5.002305898815393">
        <ele>400.98828125</ele>
        <time>2015-05-03T09:49:09Z</time>
      </trkpt>
      <trkpt lat="49.996842239052057" lon="5.002662632614374">
        <ele>404.20703125</ele>
        <time>2015-05-03T09:52:02Z</time>
      </trkpt>
      <trkpt lat="49.997118255123496" lon="5.002800514921546">
        <ele>406.23828125</ele>
        <time>2015-05-03T09:53:02Z</time>
      </trkpt>
      <trkpt lat="49.997322605922818" lon="5.002879556268454">
        <ele>407.796875</ele>
        <time>2015-05-03T09:53:41Z</time>
      </trkpt>
      <trkpt lat="49.997308440506458" lon="5.002880813553929">
        <ele>407.67578125</ele>
        <time>2015-05-03T09:54:10Z</time>
      </trkpt>
      <trkpt lat="49.997359653934836" lon="5.002958178520203">
        <ele>408.32421875</ele>
        <time>2015-05-03T10:01:11Z</time>
      </trkpt>
      <trkpt lat="49.997289497405291" lon="5.002471944317222">
        <ele>407.38671875</ele>
        <time>2015-05-03T10:01:37Z</time>
      </trkpt>
      <trkpt lat="49.997147172689438" lon="5.001952350139618">
        <ele>408.5390625</ele>
        <time>2015-05-03T10:01:58Z</time>
      </trkpt>
      <trkpt lat="49.997058911249042" lon="5.001369221135974">
        <ele>410.1953125</ele>
        <time>2015-05-03T10:02:23Z</time>
      </trkpt>
      <trkpt lat="49.996925722807646" lon="5.000832360237837">
        <ele>411.86328125</ele>
        <time>2015-05-03T10:02:47Z</time>
      </trkpt>
      <trkpt lat="49.996848693117499" lon="5.000240262597799">
        <ele>413.02734375</ele>
        <time>2015-05-03T10:03:12Z</time>
      </trkpt>
      <trkpt lat="49.996694047003984" lon="4.999628132209182">
        <ele>414.41796875</ele>
        <time>2015-05-03T10:03:43Z</time>
      </trkpt>
      <trkpt lat="49.996621543541551" lon="4.998942660167813">
        <ele>415.05859375</ele>
        <time>2015-05-03T10:04:15Z</time>
      </trkpt>
      <trkpt lat="49.996502939611673" lon="4.998352658003569">
        <ele>414.87109375</ele>
        <time>2015-05-03T10:04:43Z</time>
      </trkpt>
      <trkpt lat="49.996370505541563" lon="4.997795512899756">
        <ele>413.1953125</ele>
        <time>2015-05-03T10:05:09Z</time>
      </trkpt>
      <trkpt lat="49.995565926656127" lon="4.996850453317165">
        <ele>402.7734375</ele>
        <time>2015-05-03T10:07:24Z</time>
      </trkpt>
      <trkpt lat="49.995460649952292" lon="4.99665473587811">
        <ele>401.26953125</ele>
        <time>2015-05-03T10:07:45Z</time>
      </trkpt>
      <trkpt lat="49.995179018005729" lon="4.99633714556694">
        <ele>398.0859375</ele>
        <time>2015-05-03T10:08:06Z</time>
      </trkpt>
      <trkpt lat="49.995043566450477" lon="4.996054759249091">
        <ele>396.7890625</ele>
        <time>2015-05-03T10:08:34Z</time>
      </trkpt>
      <trkpt lat="49.994582980871201" lon="4.995514629408717">
        <ele>396.30078125</ele>
        <time>2015-05-03T10:09:28Z</time>
      </trkpt>
      <trkpt lat="49.994361279532313" lon="4.995147585868835">
        <ele>397.8671875</ele>
        <time>2015-05-03T10:09:54Z</time>
      </trkpt>
      <trkpt lat="49.994046790525317" lon="4.994829660281539">
        <ele>397.65234375</ele>
        <time>2015-05-03T10:10:23Z</time>
      </trkpt>
      <trkpt lat="49.993733307346702" lon="4.994380222633481">
        <ele>397.75</ele>
        <time>2015-05-03T10:10:53Z</time>
      </trkpt>
      <trkpt lat="49.993367688730359" lon="4.993951320648193">
        <ele>396.56640625</ele>
        <time>2015-05-03T10:11:17Z</time>
      </trkpt>
      <trkpt lat="49.993071388453245" lon="4.993619145825505">
        <ele>396.0390625</ele>
        <time>2015-05-03T10:11:44Z</time>
      </trkpt>
      <trkpt lat="49.992828564718366" lon="4.993237014859915">
        <ele>396.125</ele>
        <time>2015-05-03T10:12:10Z</time>
      </trkpt>
      <trkpt lat="49.992484068498015" lon="4.992713984102011">
        <ele>397.4375</ele>
        <time>2015-05-03T10:12:42Z</time>
      </trkpt>
      <trkpt lat="49.992413409054279" lon="4.992614993825555">
        <ele>398.19921875</ele>
        <time>2015-05-03T10:12:48Z</time>
      </trkpt>
      <trkpt lat="49.992068745195866" lon="4.992231521755457">
        <ele>400.5</ele>
        <time>2015-05-03T10:13:07Z</time>
      </trkpt>
      <trkpt lat="49.991683010011911" lon="4.991763224825263">
        <ele>402.4765625</ele>
        <time>2015-05-03T10:13:34Z</time>
      </trkpt>
      <trkpt lat="49.991429960355163" lon="4.992122473195195">
        <ele>401.84765625</ele>
        <time>2015-05-03T10:14:03Z</time>
      </trkpt>
      <trkpt lat="49.991007009521127" lon="4.992586495354772">
        <ele>399.28125</ele>
        <time>2015-05-03T10:14:39Z</time>
      </trkpt>
      <trkpt lat="49.990922352299094" lon="4.992667799815536">
        <ele>399.00390625</ele>
        <time>2015-05-03T10:14:42Z</time>
      </trkpt>
      <trkpt lat="49.990824032574892" lon="4.992817919701338">
        <ele>398.45703125</ele>
        <time>2015-05-03T10:14:57Z</time>
      </trkpt>
      <trkpt lat="49.990334780886769" lon="4.993315804749727">
        <ele>396.296875</ele>
        <time>2015-05-03T10:15:27Z</time>
      </trkpt>
      <trkpt lat="49.990043006837368" lon="4.993885355070233">
        <ele>393.828125</ele>
        <time>2015-05-03T10:15:56Z</time>
      </trkpt>
      <trkpt lat="49.990248614922166" lon="4.994307048618794">
        <ele>392.71875</ele>
        <time>2015-05-03T10:18:53Z</time>
      </trkpt>
      <trkpt lat="49.990217769518495" lon="4.994975170120597">
        <ele>391.8515625</ele>
        <time>2015-05-03T10:19:12Z</time>
      </trkpt>
      <trkpt lat="49.990221038460732" lon="4.994989419355989">
        <ele>391.83203125</ele>
        <time>2015-05-03T10:19:13Z</time>
      </trkpt>
      <trkpt lat="49.990211315453053" lon="4.995224950835109">
        <ele>391.109375</ele>
        <time>2015-05-03T10:19:24Z</time>
      </trkpt>
      <trkpt lat="49.990154905244708" lon="4.995619654655457">
        <ele>389.7421875</ele>
        <time>2015-05-03T10:19:46Z</time>
      </trkpt>
      <trkpt lat="49.98994879424572" lon="4.996134890243411">
        <ele>388.1328125</ele>
        <time>2015-05-03T10:20:13Z</time>
      </trkpt>
      <trkpt lat="49.989791130647063" lon="4.99655356630683">
        <ele>387.60546875</ele>
        <time>2015-05-03T10:20:33Z</time>
      </trkpt>
      <trkpt lat="49.989674454554915" lon="4.996922621503472">
        <ele>386.80859375</ele>
        <time>2015-05-03T10:20:53Z</time>
      </trkpt>
      <trkpt lat="49.989569764584303" lon="4.997366275638342">
        <ele>385.88671875</ele>
        <time>2015-05-03T10:21:14Z</time>
      </trkpt>
      <trkpt lat="49.989514276385307" lon="4.997852928936482">
        <ele>385.03515625</ele>
        <time>2015-05-03T10:21:34Z</time>
      </trkpt>
      <trkpt lat="49.989423081278801" lon="4.998219218105078">
        <ele>384.1953125</ele>
        <time>2015-05-03T10:21:50Z</time>
      </trkpt>
      <trkpt lat="49.989379327744246" lon="4.998324746266007">
        <ele>384.0546875</ele>
        <time>2015-05-03T10:21:54Z</time>
      </trkpt>
      <trkpt lat="49.989198949187994" lon="4.998833360150456">
        <ele>383.75390625</ele>
        <time>2015-05-03T10:22:16Z</time>
      </trkpt>
      <trkpt lat="49.989076824858785" lon="4.999111639335752">
        <ele>383.21484375</ele>
        <time>2015-05-03T10:22:36Z</time>
      </trkpt>
      <trkpt lat="49.989041872322559" lon="4.999183556064963">
        <ele>383.05859375</ele>
        <time>2015-05-03T10:22:41Z</time>
      </trkpt>
      <trkpt lat="49.988991413265467" lon="4.999257484450936">
        <ele>382.83984375</ele>
        <time>2015-05-03T10:22:46Z</time>
      </trkpt>
      <trkpt lat="49.988794438540936" lon="4.999687308445573">
        <ele>381.765625</ele>
        <time>2015-05-03T10:23:07Z</time>
      </trkpt>
      <trkpt lat="49.988701399415731" lon="4.999919654801488">
        <ele>381.25390625</ele>
        <time>2015-05-03T10:23:20Z</time>
      </trkpt>
      <trkpt lat="49.988699471578002" lon="4.999928791075945">
        <ele>381.24609375</ele>
        <time>2015-05-03T10:23:21Z</time>
      </trkpt>
      <trkpt lat="49.988696705549955" lon="4.999938430264592">
        <ele>381.23046875</ele>
        <time>2015-05-03T10:23:22Z</time>
      </trkpt>
      <trkpt lat="49.988693855702877" lon="4.999948656186461">
        <ele>381.21484375</ele>
        <time>2015-05-03T10:23:23Z</time>
      </trkpt>
      <trkpt lat="49.988369727507234" lon="5.000658854842186">
        <ele>379.67578125</ele>
        <time>2015-05-03T10:23:55Z</time>
      </trkpt>
      <trkpt lat="49.988187924027443" lon="5.001130672171712">
        <ele>378.9296875</ele>
        <time>2015-05-03T10:24:23Z</time>
      </trkpt>
      <trkpt lat="49.987994972616434" lon="5.001511797308922">
        <ele>378.671875</ele>
        <time>2015-05-03T10:24:56Z</time>
      </trkpt>
      <trkpt lat="49.987717028707266" lon="5.002067349851131">
        <ele>377.1875</ele>
        <time>2015-05-03T10:25:27Z</time>
      </trkpt>
      <trkpt lat="49.987820880487561" lon="5.002194084227085">
        <ele>375.28515625</ele>
        <time>2015-05-03T10:25:53Z</time>
      </trkpt>
      <trkpt lat="49.987975861877203" lon="5.002472447231412">
        <ele>374.47265625</ele>
        <time>2015-05-03T10:26:15Z</time>
      </trkpt>
      <trkpt lat="49.988307114690542" lon="5.002869749441743">
        <ele>373.39453125</ele>
        <time>2015-05-03T10:26:39Z</time>
      </trkpt>
      <trkpt lat="49.989350661635399" lon="5.00358397141099">
        <ele>373.109375</ele>
        <time>2015-05-03T10:27:10Z</time>
      </trkpt>
      <trkpt lat="49.988922933116555" lon="5.004538837820292">
        <ele>371.73046875</ele>
        <time>2015-05-03T10:27:41Z</time>
      </trkpt>
      <trkpt lat="49.988176189363003" lon="5.005508372560144">
        <ele>370.69921875</ele>
        <time>2015-05-03T10:28:16Z</time>
      </trkpt>
      <trkpt lat="49.988070577383041" lon="5.005770642310381">
        <ele>367.7734375</ele>
        <time>2015-05-03T10:28:46Z</time>
      </trkpt>
      <trkpt lat="49.988022465258837" lon="5.005930569022894">
        <ele>366.07421875</ele>
        <time>2015-05-03T10:28:58Z</time>
      </trkpt>
      <trkpt lat="49.987982818856835" lon="5.006018076092005">
        <ele>363.63671875</ele>
        <time>2015-05-03T10:29:14Z</time>
      </trkpt>
      <trkpt lat="49.987985584884882" lon="5.006350167095661">
        <ele>361.0078125</ele>
        <time>2015-05-03T10:29:41Z</time>
      </trkpt>
      <trkpt lat="49.988312730565667" lon="5.007317271083593">
        <ele>360.69921875</ele>
        <time>2015-05-03T10:30:13Z</time>
      </trkpt>
      <trkpt lat="49.988391268998384" lon="5.00789419747889">
        <ele>362.10546875</ele>
        <time>2015-05-03T10:30:35Z</time>
      </trkpt>
      <trkpt lat="49.98799572698772" lon="5.008111288771033">
        <ele>362.671875</ele>
        <time>2015-05-03T10:31:04Z</time>
      </trkpt>
      <trkpt lat="49.987511755898595" lon="5.008258558809757">
        <ele>362.6484375</ele>
        <time>2015-05-03T10:31:35Z</time>
      </trkpt>
      <trkpt lat="49.987098528072238" lon="5.008330056443811">
        <ele>362.23046875</ele>
        <time>2015-05-03T10:32:04Z</time>
      </trkpt>
      <trkpt lat="49.986639283597469" lon="5.008358471095562">
        <ele>361.125</ele>
        <time>2015-05-03T10:32:36Z</time>
      </trkpt>
      <trkpt lat="49.985769242048264" lon="5.008325530216098">
        <ele>358.51953125</ele>
        <time>2015-05-03T10:33:02Z</time>
      </trkpt>
      <trkpt lat="49.984911857172847" lon="5.008624764159322">
        <ele>358.67578125</ele>
        <time>2015-05-03T10:33:23Z</time>
      </trkpt>
      <trkpt lat="49.984328225255013" lon="5.008944533765316">
        <ele>358.14453125</ele>
        <time>2015-05-03T10:33:45Z</time>
      </trkpt>
      <trkpt lat="49.984251111745834" lon="5.00900044105947">
        <ele>358.0390625</ele>
        <time>2015-05-03T10:33:49Z</time>
      </trkpt>
      <trkpt lat="49.983309991657734" lon="5.010120179504156">
        <ele>358.03515625</ele>
        <time>2015-05-03T10:34:14Z</time>
      </trkpt>
      <trkpt lat="49.983085943385959" lon="5.010339450091124">
        <ele>357.51171875</ele>
        <time>2015-05-03T10:34:25Z</time>
      </trkpt>
      <trkpt lat="49.983028443530202" lon="5.010369122028351">
        <ele>357.22265625</ele>
        <time>2015-05-03T10:34:28Z</time>
      </trkpt>
      <trkpt lat="49.982890812680125" lon="5.010495688766241">
        <ele>356.9453125</ele>
        <time>2015-05-03T10:34:35Z</time>
      </trkpt>
      <trkpt lat="49.982238784432411" lon="5.011367909610272">
        <ele>354.984375</ele>
        <time>2015-05-03T10:34:58Z</time>
      </trkpt>
      <trkpt lat="49.981610309332609" lon="5.012560151517391">
        <ele>352.57421875</ele>
        <time>2015-05-03T10:35:24Z</time>
      </trkpt>
      <trkpt lat="49.981463626027107" lon="5.012886207550764">
        <ele>351.90234375</ele>
        <time>2015-05-03T10:35:38Z</time>
      </trkpt>
      <trkpt lat="49.98098099604249" lon="5.013682236894965">
        <ele>349.01953125</ele>
        <time>2015-05-03T10:35:58Z</time>
      </trkpt>
      <trkpt lat="49.980484955012798" lon="5.014336444437504">
        <ele>346.72265625</ele>
        <time>2015-05-03T10:36:15Z</time>
      </trkpt>
      <trkpt lat="49.979667635634542" lon="5.015731612220407">
        <ele>344.03125</ele>
        <time>2015-05-03T10:36:39Z</time>
      </trkpt>
      <trkpt lat="49.979650033637881" lon="5.015821633860469">
        <ele>343.953125</ele>
        <time>2015-05-03T10:36:42Z</time>
      </trkpt>
      <trkpt lat="49.97959915548563" lon="5.015926407650113">
        <ele>343.765625</ele>
        <time>2015-05-03T10:36:46Z</time>
      </trkpt>
      <trkpt lat="49.979222975671291" lon="5.016821008175612">
        <ele>343.3203125</ele>
        <time>2015-05-03T10:37:07Z</time>
      </trkpt>
      <trkpt lat="49.978933883830905" lon="5.016775578260422">
        <ele>340.3671875</ele>
        <time>2015-05-03T10:37:34Z</time>
      </trkpt>
      <trkpt lat="49.978921646252275" lon="5.016775159165263">
        <ele>340.34765625</ele>
        <time>2015-05-03T10:37:35Z</time>
      </trkpt>
      <trkpt lat="49.978357376530766" lon="5.016527976840735">
        <ele>341.23828125</ele>
        <time>2015-05-03T10:38:10Z</time>
      </trkpt>
      <trkpt lat="49.977974658831954" lon="5.016021626070142">
        <ele>342.81640625</ele>
        <time>2015-05-03T10:38:43Z</time>
      </trkpt>
      <trkpt lat="49.977736361324787" lon="5.01579187810421">
        <ele>344.4375</ele>
        <time>2015-05-03T10:39:05Z</time>
      </trkpt>
      <trkpt lat="49.977575177326798" lon="5.01612120307982">
        <ele>344.359375</ele>
        <time>2015-05-03T10:39:23Z</time>
      </trkpt>
      <trkpt lat="49.977320535108447" lon="5.016596037894487">
        <ele>342.82421875</ele>
        <time>2015-05-03T10:39:44Z</time>
      </trkpt>
      <trkpt lat="49.977076957002282" lon="5.017011612653732">
        <ele>341.96484375</ele>
        <time>2015-05-03T10:40:11Z</time>
      </trkpt>
      <trkpt lat="49.976895991712809" lon="5.017541432753205">
        <ele>342.484375</ele>
        <time>2015-05-03T10:40:37Z</time>
      </trkpt>
      <trkpt lat="49.976736316457391" lon="5.018130680546165">
        <ele>343.703125</ele>
        <time>2015-05-03T10:41:09Z</time>
      </trkpt>
      <trkpt lat="49.976616706699133" lon="5.018877005204558">
        <ele>345.87109375</ele>
        <time>2015-05-03T10:41:41Z</time>
      </trkpt>
      <trkpt lat="49.976524086669087" lon="5.019622826948762">
        <ele>347.76171875</ele>
        <time>2015-05-03T10:42:07Z</time>
      </trkpt>
      <trkpt lat="49.976458791643381" lon="5.020418604835868">
        <ele>350.4609375</ele>
        <time>2015-05-03T10:42:37Z</time>
      </trkpt>
      <trkpt lat="49.976338259875774" lon="5.021085971966386">
        <ele>352.54296875</ele>
        <time>2015-05-03T10:43:06Z</time>
      </trkpt>
      <trkpt lat="49.976245975121856" lon="5.021296944469214">
        <ele>353.18359375</ele>
        <time>2015-05-03T10:43:21Z</time>
      </trkpt>
      <trkpt lat="49.976028464734554" lon="5.021740514785051">
        <ele>356.703125</ele>
        <time>2015-05-03T10:43:44Z</time>
      </trkpt>
      <trkpt lat="49.97563200071454" lon="5.022197579964995">
        <ele>361.578125</ele>
        <time>2015-05-03T10:44:10Z</time>
      </trkpt>
      <trkpt lat="49.975329330191016" lon="5.022435961291194">
        <ele>364.60546875</ele>
        <time>2015-05-03T10:44:39Z</time>
      </trkpt>
      <trkpt lat="49.975104946643114" lon="5.022661099210382">
        <ele>366.67578125</ele>
        <time>2015-05-03T10:44:51Z</time>
      </trkpt>
      <trkpt lat="49.974681744351983" lon="5.023044236004353">
        <ele>371.01171875</ele>
        <time>2015-05-03T10:45:17Z</time>
      </trkpt>
      <trkpt lat="49.974451074376702" lon="5.023228973150253">
        <ele>373.6796875</ele>
        <time>2015-05-03T10:45:36Z</time>
      </trkpt>
      <trkpt lat="49.974236665293574" lon="5.023476406931877">
        <ele>376.05078125</ele>
        <time>2015-05-03T10:45:58Z</time>
      </trkpt>
      <trkpt lat="49.973885379731655" lon="5.023716213181615">
        <ele>380.07421875</ele>
        <time>2015-05-03T10:46:14Z</time>
      </trkpt>
      <trkpt lat="49.973744312301278" lon="5.024044197052717">
        <ele>382.40234375</ele>
        <time>2015-05-03T10:46:31Z</time>
      </trkpt>
      <trkpt lat="49.973655715584755" lon="5.02419775351882">
        <ele>383.97265625</ele>
        <time>2015-05-03T10:46:51Z</time>
      </trkpt>
      <trkpt lat="49.973471565172076" lon="5.024412162601948">
        <ele>386.41015625</ele>
        <time>2015-05-03T10:47:09Z</time>
      </trkpt>
      <trkpt lat="49.972997484728694" lon="5.024984562769532">
        <ele>390.125</ele>
        <time>2015-05-03T10:47:42Z</time>
      </trkpt>
      <trkpt lat="49.973257826641202" lon="5.025573307648301">
        <ele>389.29296875</ele>
        <time>2015-05-03T10:48:14Z</time>
      </trkpt>
      <trkpt lat="49.973453292623162" lon="5.026007238775492">
        <ele>388.90625</ele>
        <time>2015-05-03T10:48:37Z</time>
      </trkpt>
      <trkpt lat="49.973648926243186" lon="5.026631522923708">
        <ele>388.86328125</ele>
        <time>2015-05-03T10:49:08Z</time>
      </trkpt>
      <trkpt lat="49.973628055304289" lon="5.027361335232854">
        <ele>389.6015625</ele>
        <time>2015-05-03T10:49:40Z</time>
      </trkpt>
      <trkpt lat="49.973622607067227" lon="5.027959970757365">
        <ele>388.91796875</ele>
        <time>2015-05-03T10:50:09Z</time>
      </trkpt>
      <trkpt lat="49.973543481901288" lon="5.029299482703209">
        <ele>390.0234375</ele>
        <time>2015-05-03T10:51:09Z</time>
      </trkpt>
      <trkpt lat="49.973558653146029" lon="5.029933908954263">
        <ele>390.0078125</ele>
        <time>2015-05-03T10:51:37Z</time>
      </trkpt>
      <trkpt lat="49.973525460809469" lon="5.030623823404312">
        <ele>390.04296875</ele>
        <time>2015-05-03T10:52:06Z</time>
      </trkpt>
      <trkpt lat="49.973464356735349" lon="5.031495373696089">
        <ele>390.109375</ele>
        <time>2015-05-03T10:52:39Z</time>
      </trkpt>
      <trkpt lat="49.973468882963061" lon="5.031831068918109">
        <ele>390.046875</ele>
        <time>2015-05-03T10:52:55Z</time>
      </trkpt>
      <trkpt lat="49.973401241004467" lon="5.032524839043617">
        <ele>390.140625</ele>
        <time>2015-05-03T10:53:22Z</time>
      </trkpt>
      <trkpt lat="49.973448431119323" lon="5.033718338236213">
        <ele>390.09375</ele>
        <time>2015-05-03T10:54:21Z</time>
      </trkpt>
      <trkpt lat="49.973391182720661" lon="5.034349244087935">
        <ele>390.51953125</ele>
        <time>2015-05-03T10:54:49Z</time>
      </trkpt>
      <trkpt lat="49.973303508013487" lon="5.035042427480221">
        <ele>391.03125</ele>
        <time>2015-05-03T10:55:11Z</time>
      </trkpt>
      <trkpt lat="49.973129667341709" lon="5.035718595609069">
        <ele>391.72265625</ele>
        <time>2015-05-03T10:55:42Z</time>
      </trkpt>
      <trkpt lat="49.972957167774439" lon="5.037685912102461">
        <ele>387.1875</ele>
        <time>2015-05-03T10:57:03Z</time>
      </trkpt>
      <trkpt lat="49.972814004868269" lon="5.038273567333818">
        <ele>385.66796875</ele>
        <time>2015-05-03T10:57:28Z</time>
      </trkpt>
      <trkpt lat="49.97269045561552" lon="5.038846889510751">
        <ele>383.765625</ele>
        <time>2015-05-03T10:57:57Z</time>
      </trkpt>
      <trkpt lat="49.972494319081306" lon="5.039640571922064">
        <ele>381.5234375</ele>
        <time>2015-05-03T10:58:24Z</time>
      </trkpt>
      <trkpt lat="49.972442435100675" lon="5.041829170659185">
        <ele>376.8828125</ele>
        <time>2015-05-03T10:59:56Z</time>
      </trkpt>
      <trkpt lat="49.972423743456602" lon="5.042029246687889">
        <ele>376.2890625</ele>
        <time>2015-05-03T11:00:10Z</time>
      </trkpt>
      <trkpt lat="49.972466323524714" lon="5.042768027633429">
        <ele>374.6953125</ele>
        <time>2015-05-03T11:00:37Z</time>
      </trkpt>
      <trkpt lat="49.972503455355763" lon="5.043453332036734">
        <ele>374.3359375</ele>
        <time>2015-05-03T11:01:04Z</time>
      </trkpt>
      <trkpt lat="49.972649635747075" lon="5.044148191809654">
        <ele>373.984375</ele>
        <time>2015-05-03T11:01:33Z</time>
      </trkpt>
      <trkpt lat="49.972762456163764" lon="5.044727632775903">
        <ele>373.9609375</ele>
        <time>2015-05-03T11:02:00Z</time>
      </trkpt>
      <trkpt lat="49.972770838066936" lon="5.04476954229176">
        <ele>373.92578125</ele>
        <time>2015-05-03T11:02:02Z</time>
      </trkpt>
      <trkpt lat="49.972932273522019" lon="5.045386115089059">
        <ele>373.3984375</ele>
        <time>2015-05-03T11:02:33Z</time>
      </trkpt>
      <trkpt lat="49.973149113357067" lon="5.046017523854971">
        <ele>373.04296875</ele>
        <time>2015-05-03T11:03:03Z</time>
      </trkpt>
      <trkpt lat="49.973479025065899" lon="5.046682208776474">
        <ele>371.15625</ele>
        <time>2015-05-03T11:03:37Z</time>
      </trkpt>
      <trkpt lat="49.97386853210628" lon="5.047254525125027">
        <ele>370.01953125</ele>
        <time>2015-05-03T11:04:09Z</time>
      </trkpt>
      <trkpt lat="49.974211268126965" lon="5.04757915623486">
        <ele>370.01953125</ele>
        <time>2015-05-03T11:04:38Z</time>
      </trkpt>
      <trkpt lat="49.974419642239809" lon="5.048076286911964">
        <ele>369.92578125</ele>
        <time>2015-05-03T11:05:28Z</time>
      </trkpt>
      <trkpt lat="49.974631201475859" lon="5.04888916388154">
        <ele>370.01953125</ele>
        <time>2015-05-03T11:14:21Z</time>
      </trkpt>
      <trkpt lat="49.974730359390378" lon="5.049144141376019">
        <ele>369.625</ele>
        <time>2015-05-03T11:14:42Z</time>
      </trkpt>
      <trkpt lat="49.974310845136642" lon="5.049570528790355">
        <ele>368.4375</ele>
        <time>2015-05-03T11:15:07Z</time>
      </trkpt>
      <trkpt lat="49.974068189039826" lon="5.04987521097064">
        <ele>367.45703125</ele>
        <time>2015-05-03T11:15:32Z</time>
      </trkpt>
      <trkpt lat="49.973950842395425" lon="5.049615958705545">
        <ele>367.1640625</ele>
        <time>2015-05-03T11:15:57Z</time>
      </trkpt>
    </trkseg>
  </trk>

</gpx>